sensor_id;sensor_type;location;lat;lon;timestamp;P1;durP1;ratioP1;P2;durP2;ratioP2
61572;SDS011;47465;43.094;12.434;2023-04-29T00:01:08;11.57;;;4.68;;
61572;SDS011;47465;43.094;12.434;2023-04-29T00:03:34;6.00;;;3.35;;
61572;SDS011;47465;43.094;12.434;2023-04-29T00:06:00;8.05;;;3.53;;
61572;SDS011;47465;43.094;12.434;2023-04-29T00:08:26;11.15;;;3.40;;
61572;SDS011;47465;43.094;12.434;2023-04-29T00:10:52;11.30;;;4.10;;
61572;SDS011;47465;43.094;12.434;2023-04-29T00:13:19;7.38;;;3.40;;
61572;SDS011;47465;43.094;12.434;2023-04-29T00:15:45;11.82;;;4.13;;
61572;SDS011;47465;43.094;12.434;2023-04-29T00:18:12;7.82;;;3.53;;
61572;SDS011;47465;43.094;12.434;2023-04-29T00:20:38;9.63;;;3.83;;
61572;SDS011;47465;43.094;12.434;2023-04-29T00:23:04;11.18;;;3.45;;
61572;SDS011;47465;43.094;12.434;2023-04-29T00:25:30;8.35;;;3.47;;
61572;SDS011;47465;43.094;12.434;2023-04-29T00:27:56;7.68;;;3.53;;
61572;SDS011;47465;43.094;12.434;2023-04-29T00:30:27;8.25;;;3.50;;
61572;SDS011;47465;43.094;12.434;2023-04-29T00:32:53;7.45;;;3.53;;
61572;SDS011;47465;43.094;12.434;2023-04-29T00:35:19;8.00;;;3.78;;
61572;SDS011;47465;43.094;12.434;2023-04-29T00:37:45;7.43;;;3.25;;
61572;SDS011;47465;43.094;12.434;2023-04-29T00:40:11;7.72;;;3.45;;
61572;SDS011;47465;43.094;12.434;2023-04-29T00:42:39;7.85;;;3.35;;
61572;SDS011;47465;43.094;12.434;2023-04-29T00:45:06;4.75;;;2.90;;
61572;SDS011;47465;43.094;12.434;2023-04-29T00:47:34;8.70;;;3.50;;
61572;SDS011;47465;43.094;12.434;2023-04-29T00:50:00;7.10;;;3.10;;
61572;SDS011;47465;43.094;12.434;2023-04-29T00:52:26;6.47;;;2.75;;
61572;SDS011;47465;43.094;12.434;2023-04-29T00:54:56;7.57;;;3.00;;
61572;SDS011;47465;43.094;12.434;2023-04-29T00:57:22;5.88;;;2.70;;
61572;SDS011;47465;43.094;12.434;2023-04-29T00:59:48;4.85;;;3.05;;
61572;SDS011;47465;43.094;12.434;2023-04-29T01:02:14;6.07;;;3.15;;
61572;SDS011;47465;43.094;12.434;2023-04-29T01:04:43;6.07;;;3.00;;
61572;SDS011;47465;43.094;12.434;2023-04-29T01:07:12;6.47;;;2.90;;
61572;SDS011;47465;43.094;12.434;2023-04-29T01:09:46;6.22;;;2.90;;
61572;SDS011;47465;43.094;12.434;2023-04-29T01:12:19;7.05;;;2.92;;
61572;SDS011;47465;43.094;12.434;2023-04-29T01:14:50;5.65;;;2.90;;
61572;SDS011;47465;43.094;12.434;2023-04-29T01:17:23;8.07;;;3.13;;
61572;SDS011;47465;43.094;12.434;2023-04-29T01:19:55;4.97;;;2.72;;
61572;SDS011;47465;43.094;12.434;2023-04-29T01:22:23;4.97;;;2.75;;
61572;SDS011;47465;43.094;12.434;2023-04-29T01:24:50;7.80;;;3.15;;
61572;SDS011;47465;43.094;12.434;2023-04-29T01:27:22;5.57;;;2.80;;
61572;SDS011;47465;43.094;12.434;2023-04-29T01:29:58;6.63;;;2.80;;
61572;SDS011;47465;43.094;12.434;2023-04-29T01:32:29;8.93;;;2.60;;
61572;SDS011;47465;43.094;12.434;2023-04-29T01:35:03;5.05;;;2.60;;
61572;SDS011;47465;43.094;12.434;2023-04-29T01:37:37;4.75;;;2.67;;
61572;SDS011;47465;43.094;12.434;2023-04-29T01:40:11;7.65;;;3.05;;
61572;SDS011;47465;43.094;12.434;2023-04-29T01:42:43;4.93;;;2.72;;
61572;SDS011;47465;43.094;12.434;2023-04-29T01:45:12;5.55;;;2.80;;
61572;SDS011;47465;43.094;12.434;2023-04-29T01:47:41;5.20;;;2.60;;
61572;SDS011;47465;43.094;12.434;2023-04-29T01:50:09;4.63;;;2.58;;
61572;SDS011;47465;43.094;12.434;2023-04-29T01:52:35;6.60;;;3.00;;
61572;SDS011;47465;43.094;12.434;2023-04-29T01:55:02;4.20;;;2.53;;
61572;SDS011;47465;43.094;12.434;2023-04-29T01:57:30;4.70;;;2.70;;
61572;SDS011;47465;43.094;12.434;2023-04-29T01:59:55;6.93;;;2.67;;
61572;SDS011;47465;43.094;12.434;2023-04-29T02:02:21;5.07;;;2.50;;
61572;SDS011;47465;43.094;12.434;2023-04-29T02:04:47;6.57;;;2.55;;
61572;SDS011;47465;43.094;12.434;2023-04-29T02:07:14;5.93;;;2.80;;
61572;SDS011;47465;43.094;12.434;2023-04-29T02:09:40;8.05;;;2.95;;
61572;SDS011;47465;43.094;12.434;2023-04-29T02:12:06;5.25;;;2.70;;
61572;SDS011;47465;43.094;12.434;2023-04-29T02:14:33;5.22;;;2.80;;
61572;SDS011;47465;43.094;12.434;2023-04-29T02:17:00;8.02;;;2.95;;
61572;SDS011;47465;43.094;12.434;2023-04-29T02:19:26;5.38;;;2.65;;
61572;SDS011;47465;43.094;12.434;2023-04-29T02:21:52;6.20;;;2.78;;
61572;SDS011;47465;43.094;12.434;2023-04-29T02:24:17;5.82;;;2.88;;
61572;SDS011;47465;43.094;12.434;2023-04-29T02:26:43;4.10;;;2.30;;
61572;SDS011;47465;43.094;12.434;2023-04-29T02:29:09;7.47;;;2.65;;
61572;SDS011;47465;43.094;12.434;2023-04-29T02:31:37;5.57;;;2.50;;
61572;SDS011;47465;43.094;12.434;2023-04-29T02:34:02;5.93;;;2.75;;
61572;SDS011;47465;43.094;12.434;2023-04-29T02:36:28;4.90;;;2.28;;
61572;SDS011;47465;43.094;12.434;2023-04-29T02:38:55;4.88;;;2.63;;
61572;SDS011;47465;43.094;12.434;2023-04-29T02:41:21;5.43;;;2.75;;
61572;SDS011;47465;43.094;12.434;2023-04-29T02:43:47;4.95;;;2.55;;
61572;SDS011;47465;43.094;12.434;2023-04-29T02:46:13;4.70;;;2.50;;
61572;SDS011;47465;43.094;12.434;2023-04-29T02:48:42;4.93;;;2.55;;
61572;SDS011;47465;43.094;12.434;2023-04-29T02:51:08;5.05;;;2.80;;
61572;SDS011;47465;43.094;12.434;2023-04-29T02:53:33;4.95;;;2.40;;
61572;SDS011;47465;43.094;12.434;2023-04-29T02:55:59;5.03;;;2.42;;
61572;SDS011;47465;43.094;12.434;2023-04-29T02:58:25;5.40;;;2.58;;
61572;SDS011;47465;43.094;12.434;2023-04-29T03:00:51;5.03;;;2.53;;
61572;SDS011;47465;43.094;12.434;2023-04-29T03:03:17;5.70;;;2.53;;
61572;SDS011;47465;43.094;12.434;2023-04-29T03:05:44;6.13;;;2.42;;
61572;SDS011;47465;43.094;12.434;2023-04-29T03:08:10;3.78;;;2.40;;
61572;SDS011;47465;43.094;12.434;2023-04-29T03:10:36;5.18;;;2.40;;
61572;SDS011;47465;43.094;12.434;2023-04-29T03:13:03;5.60;;;2.50;;
61572;SDS011;47465;43.094;12.434;2023-04-29T03:15:29;4.90;;;2.40;;
61572;SDS011;47465;43.094;12.434;2023-04-29T03:17:55;4.30;;;2.47;;
61572;SDS011;47465;43.094;12.434;2023-04-29T03:20:21;4.30;;;2.47;;
61572;SDS011;47465;43.094;12.434;2023-04-29T03:22:49;5.82;;;2.80;;
61572;SDS011;47465;43.094;12.434;2023-04-29T03:25:15;5.63;;;2.60;;
61572;SDS011;47465;43.094;12.434;2023-04-29T03:27:41;5.88;;;2.42;;
61572;SDS011;47465;43.094;12.434;2023-04-29T03:30:07;6.78;;;2.40;;
61572;SDS011;47465;43.094;12.434;2023-04-29T03:32:33;5.13;;;2.40;;
61572;SDS011;47465;43.094;12.434;2023-04-29T03:34:59;4.00;;;2.53;;
61572;SDS011;47465;43.094;12.434;2023-04-29T03:37:26;5.18;;;2.38;;
61572;SDS011;47465;43.094;12.434;2023-04-29T03:39:53;5.07;;;2.60;;
61572;SDS011;47465;43.094;12.434;2023-04-29T03:42:19;4.00;;;2.25;;
61572;SDS011;47465;43.094;12.434;2023-04-29T03:44:45;5.20;;;2.60;;
61572;SDS011;47465;43.094;12.434;2023-04-29T03:47:11;5.38;;;2.60;;
61572;SDS011;47465;43.094;12.434;2023-04-29T03:49:38;4.70;;;2.40;;
61572;SDS011;47465;43.094;12.434;2023-04-29T03:52:04;6.22;;;2.40;;
61572;SDS011;47465;43.094;12.434;2023-04-29T03:54:30;7.80;;;2.40;;
61572;SDS011;47465;43.094;12.434;2023-04-29T03:56:58;4.13;;;2.38;;
61572;SDS011;47465;43.094;12.434;2023-04-29T03:59:24;5.07;;;2.50;;
61572;SDS011;47465;43.094;12.434;2023-04-29T04:01:50;7.68;;;2.63;;
61572;SDS011;47465;43.094;12.434;2023-04-29T04:04:18;3.97;;;2.38;;
61572;SDS011;47465;43.094;12.434;2023-04-29T04:06:44;5.03;;;2.38;;
61572;SDS011;47465;43.094;12.434;2023-04-29T04:09:15;6.28;;;2.60;;
61572;SDS011;47465;43.094;12.434;2023-04-29T04:11:41;4.07;;;2.20;;
61572;SDS011;47465;43.094;12.434;2023-04-29T04:14:08;7.20;;;2.50;;
61572;SDS011;47465;43.094;12.434;2023-04-29T04:16:34;6.22;;;2.65;;
61572;SDS011;47465;43.094;12.434;2023-04-29T04:19:00;5.03;;;2.92;;
61572;SDS011;47465;43.094;12.434;2023-04-29T04:21:27;6.15;;;2.72;;
61572;SDS011;47465;43.094;12.434;2023-04-29T04:23:54;5.10;;;2.30;;
61572;SDS011;47465;43.094;12.434;2023-04-29T04:26:20;5.88;;;2.80;;
61572;SDS011;47465;43.094;12.434;2023-04-29T04:28:47;4.50;;;2.20;;
61572;SDS011;47465;43.094;12.434;2023-04-29T04:31:14;6.68;;;2.85;;
61572;SDS011;47465;43.094;12.434;2023-04-29T04:33:40;8.60;;;2.67;;
61572;SDS011;47465;43.094;12.434;2023-04-29T04:36:06;7.82;;;2.70;;
61572;SDS011;47465;43.094;12.434;2023-04-29T04:38:32;4.35;;;2.70;;
61572;SDS011;47465;43.094;12.434;2023-04-29T04:40:58;5.53;;;2.63;;
61572;SDS011;47465;43.094;12.434;2023-04-29T04:43:24;4.78;;;3.05;;
61572;SDS011;47465;43.094;12.434;2023-04-29T04:45:51;7.80;;;3.10;;
61572;SDS011;47465;43.094;12.434;2023-04-29T04:48:18;7.68;;;3.58;;
61572;SDS011;47465;43.094;12.434;2023-04-29T04:50:44;7.70;;;3.28;;
61572;SDS011;47465;43.094;12.434;2023-04-29T04:53:10;6.55;;;3.10;;
61572;SDS011;47465;43.094;12.434;2023-04-29T04:55:36;6.75;;;2.90;;
61572;SDS011;47465;43.094;12.434;2023-04-29T04:58:02;8.98;;;3.25;;
61572;SDS011;47465;43.094;12.434;2023-04-29T05:00:28;5.93;;;3.10;;
61572;SDS011;47465;43.094;12.434;2023-04-29T05:02:53;8.80;;;3.28;;
61572;SDS011;47465;43.094;12.434;2023-04-29T05:05:21;6.13;;;3.17;;
61572;SDS011;47465;43.094;12.434;2023-04-29T05:07:47;7.53;;;3.38;;
61572;SDS011;47465;43.094;12.434;2023-04-29T05:10:13;7.70;;;3.40;;
61572;SDS011;47465;43.094;12.434;2023-04-29T05:12:38;7.22;;;3.58;;
61572;SDS011;47465;43.094;12.434;2023-04-29T05:15:05;6.20;;;3.42;;
61572;SDS011;47465;43.094;12.434;2023-04-29T05:17:32;6.53;;;3.20;;
61572;SDS011;47465;43.094;12.434;2023-04-29T05:19:59;8.45;;;3.22;;
61572;SDS011;47465;43.094;12.434;2023-04-29T05:22:26;8.00;;;3.25;;
61572;SDS011;47465;43.094;12.434;2023-04-29T05:24:52;7.40;;;3.22;;
61572;SDS011;47465;43.094;12.434;2023-04-29T05:27:20;7.15;;;3.35;;
61572;SDS011;47465;43.094;12.434;2023-04-29T05:29:46;7.07;;;3.10;;
61572;SDS011;47465;43.094;12.434;2023-04-29T05:32:12;6.47;;;3.10;;
61572;SDS011;47465;43.094;12.434;2023-04-29T05:34:38;8.02;;;3.30;;
61572;SDS011;47465;43.094;12.434;2023-04-29T05:37:04;8.40;;;3.78;;
61572;SDS011;47465;43.094;12.434;2023-04-29T05:39:31;6.65;;;3.60;;
61572;SDS011;47465;43.094;12.434;2023-04-29T05:41:57;6.07;;;3.30;;
61572;SDS011;47465;43.094;12.434;2023-04-29T05:44:23;9.05;;;3.90;;
61572;SDS011;47465;43.094;12.434;2023-04-29T05:46:49;7.97;;;3.50;;
61572;SDS011;47465;43.094;12.434;2023-04-29T05:49:16;11.65;;;4.25;;
61572;SDS011;47465;43.094;12.434;2023-04-29T05:51:42;8.32;;;4.28;;
61572;SDS011;47465;43.094;12.434;2023-04-29T05:54:07;11.18;;;4.68;;
61572;SDS011;47465;43.094;12.434;2023-04-29T05:56:35;8.90;;;4.43;;
61572;SDS011;47465;43.094;12.434;2023-04-29T05:59:01;7.88;;;4.03;;
61572;SDS011;47465;43.094;12.434;2023-04-29T06:01:27;8.93;;;4.20;;
61572;SDS011;47465;43.094;12.434;2023-04-29T06:03:52;9.43;;;4.25;;
61572;SDS011;47465;43.094;12.434;2023-04-29T06:06:18;7.93;;;4.20;;
61572;SDS011;47465;43.094;12.434;2023-04-29T06:08:44;10.50;;;4.22;;
61572;SDS011;47465;43.094;12.434;2023-04-29T06:11:11;9.57;;;4.63;;
61572;SDS011;47465;43.094;12.434;2023-04-29T06:13:38;8.60;;;4.90;;
61572;SDS011;47465;43.094;12.434;2023-04-29T06:16:04;10.35;;;4.20;;
61572;SDS011;47465;43.094;12.434;2023-04-29T06:18:31;17.88;;;6.18;;
61572;SDS011;47465;43.094;12.434;2023-04-29T06:20:57;14.15;;;6.28;;
61572;SDS011;47465;43.094;12.434;2023-04-29T06:23:23;11.75;;;5.90;;
61572;SDS011;47465;43.094;12.434;2023-04-29T06:25:49;10.57;;;3.97;;
61572;SDS011;47465;43.094;12.434;2023-04-29T06:28:16;9.27;;;3.83;;
61572;SDS011;47465;43.094;12.434;2023-04-29T06:30:43;7.50;;;4.00;;
61572;SDS011;47465;43.094;12.434;2023-04-29T06:33:10;9.88;;;3.30;;
61572;SDS011;47465;43.094;12.434;2023-04-29T06:35:38;13.68;;;4.22;;
61572;SDS011;47465;43.094;12.434;2023-04-29T06:38:04;7.88;;;3.78;;
61572;SDS011;47465;43.094;12.434;2023-04-29T06:40:32;9.05;;;4.45;;
61572;SDS011;47465;43.094;12.434;2023-04-29T06:42:58;6.32;;;3.38;;
61572;SDS011;47465;43.094;12.434;2023-04-29T06:45:24;9.25;;;3.65;;
61572;SDS011;47465;43.094;12.434;2023-04-29T06:47:51;5.85;;;3.35;;
61572;SDS011;47465;43.094;12.434;2023-04-29T06:50:17;8.13;;;3.38;;
61572;SDS011;47465;43.094;12.434;2023-04-29T06:52:43;8.75;;;3.75;;
61572;SDS011;47465;43.094;12.434;2023-04-29T06:55:09;8.75;;;3.40;;
61572;SDS011;47465;43.094;12.434;2023-04-29T06:57:35;8.70;;;3.60;;
61572;SDS011;47465;43.094;12.434;2023-04-29T07:00:01;6.95;;;3.47;;
61572;SDS011;47465;43.094;12.434;2023-04-29T07:02:28;6.45;;;3.88;;
61572;SDS011;47465;43.094;12.434;2023-04-29T07:04:55;8.90;;;4.35;;
61572;SDS011;47465;43.094;12.434;2023-04-29T07:07:21;9.35;;;4.35;;
61572;SDS011;47465;43.094;12.434;2023-04-29T07:09:47;10.63;;;4.00;;
61572;SDS011;47465;43.094;12.434;2023-04-29T07:12:16;9.43;;;3.90;;
61572;SDS011;47465;43.094;12.434;2023-04-29T07:14:42;8.00;;;3.78;;
61572;SDS011;47465;43.094;12.434;2023-04-29T07:17:07;8.15;;;4.22;;
61572;SDS011;47465;43.094;12.434;2023-04-29T07:19:33;6.65;;;4.13;;
61572;SDS011;47465;43.094;12.434;2023-04-29T07:22:01;9.68;;;3.97;;
61572;SDS011;47465;43.094;12.434;2023-04-29T07:24:28;8.57;;;3.58;;
61572;SDS011;47465;43.094;12.434;2023-04-29T07:26:54;6.60;;;3.80;;
61572;SDS011;47465;43.094;12.434;2023-04-29T07:29:20;7.25;;;3.58;;
61572;SDS011;47465;43.094;12.434;2023-04-29T07:31:46;7.70;;;3.63;;
61572;SDS011;47465;43.094;12.434;2023-04-29T07:34:12;7.85;;;3.97;;
61572;SDS011;47465;43.094;12.434;2023-04-29T07:36:38;6.35;;;3.33;;
61572;SDS011;47465;43.094;12.434;2023-04-29T07:39:05;7.55;;;3.80;;
61572;SDS011;47465;43.094;12.434;2023-04-29T07:41:31;8.57;;;3.80;;
61572;SDS011;47465;43.094;12.434;2023-04-29T07:43:57;8.35;;;4.00;;
61572;SDS011;47465;43.094;12.434;2023-04-29T07:46:23;9.48;;;4.05;;
61572;SDS011;47465;43.094;12.434;2023-04-29T07:48:49;6.82;;;3.50;;
61572;SDS011;47465;43.094;12.434;2023-04-29T07:51:16;8.73;;;3.85;;
61572;SDS011;47465;43.094;12.434;2023-04-29T07:53:42;8.68;;;3.42;;
61572;SDS011;47465;43.094;12.434;2023-04-29T07:56:09;5.78;;;3.33;;
61572;SDS011;47465;43.094;12.434;2023-04-29T07:58:35;8.30;;;3.40;;
61572;SDS011;47465;43.094;12.434;2023-04-29T08:01:04;5.07;;;2.67;;
61572;SDS011;47465;43.094;12.434;2023-04-29T08:03:30;4.28;;;2.85;;
61572;SDS011;47465;43.094;12.434;2023-04-29T08:05:59;6.47;;;2.63;;
61572;SDS011;47465;43.094;12.434;2023-04-29T08:10:51;7.57;;;2.85;;
61572;SDS011;47465;43.094;12.434;2023-04-29T08:13:18;6.47;;;2.70;;
61572;SDS011;47465;43.094;12.434;2023-04-29T08:15:44;8.23;;;3.05;;
61572;SDS011;47465;43.094;12.434;2023-04-29T08:18:10;4.78;;;3.03;;
61572;SDS011;47465;43.094;12.434;2023-04-29T08:20:36;7.72;;;2.90;;
61572;SDS011;47465;43.094;12.434;2023-04-29T08:23:02;5.95;;;2.72;;
61572;SDS011;47465;43.094;12.434;2023-04-29T08:25:28;13.98;;;2.72;;
61572;SDS011;47465;43.094;12.434;2023-04-29T08:27:54;5.13;;;2.20;;
61572;SDS011;47465;43.094;12.434;2023-04-29T08:30:21;7.93;;;3.00;;
61572;SDS011;47465;43.094;12.434;2023-04-29T08:32:48;8.60;;;2.70;;
61572;SDS011;47465;43.094;12.434;2023-04-29T08:35:14;3.80;;;2.20;;
61572;SDS011;47465;43.094;12.434;2023-04-29T08:37:39;4.80;;;2.40;;
61572;SDS011;47465;43.094;12.434;2023-04-29T08:40:06;5.15;;;2.70;;
61572;SDS011;47465;43.094;12.434;2023-04-29T08:42:35;5.82;;;2.75;;
61572;SDS011;47465;43.094;12.434;2023-04-29T08:45:02;5.00;;;2.40;;
61572;SDS011;47465;43.094;12.434;2023-04-29T08:47:30;7.60;;;3.30;;
61572;SDS011;47465;43.094;12.434;2023-04-29T08:49:57;7.18;;;2.80;;
61572;SDS011;47465;43.094;12.434;2023-04-29T08:52:28;7.53;;;2.97;;
61572;SDS011;47465;43.094;12.434;2023-04-29T08:54:54;6.10;;;2.90;;
61572;SDS011;47465;43.094;12.434;2023-04-29T08:57:21;4.65;;;2.67;;
61572;SDS011;47465;43.094;12.434;2023-04-29T09:02:15;6.47;;;2.78;;
61572;SDS011;47465;43.094;12.434;2023-04-29T09:04:49;7.07;;;2.80;;
61572;SDS011;47465;43.094;12.434;2023-04-29T09:07:20;4.30;;;2.63;;
61572;SDS011;47465;43.094;12.434;2023-04-29T09:09:46;6.32;;;2.55;;
61572;SDS011;47465;43.094;12.434;2023-04-29T09:12:13;6.15;;;2.60;;
61572;SDS011;47465;43.094;12.434;2023-04-29T09:14:39;5.18;;;2.38;;
61572;SDS011;47465;43.094;12.434;2023-04-29T09:17:05;5.57;;;2.50;;
61572;SDS011;47465;43.094;12.434;2023-04-29T09:19:31;5.38;;;2.45;;
61572;SDS011;47465;43.094;12.434;2023-04-29T09:22:00;8.40;;;3.08;;
61572;SDS011;47465;43.094;12.434;2023-04-29T09:24:26;7.40;;;2.90;;
61572;SDS011;47465;43.094;12.434;2023-04-29T09:26:53;4.72;;;2.33;;
61572;SDS011;47465;43.094;12.434;2023-04-29T09:29:20;7.03;;;2.65;;
61572;SDS011;47465;43.094;12.434;2023-04-29T09:31:47;7.15;;;2.65;;
61572;SDS011;47465;43.094;12.434;2023-04-29T09:34:14;7.25;;;3.33;;
61572;SDS011;47465;43.094;12.434;2023-04-29T09:36:41;8.30;;;2.67;;
61572;SDS011;47465;43.094;12.434;2023-04-29T09:39:13;4.22;;;2.40;;
61572;SDS011;47465;43.094;12.434;2023-04-29T09:41:42;4.55;;;2.20;;
61572;SDS011;47465;43.094;12.434;2023-04-29T09:44:23;3.33;;;1.90;;
61572;SDS011;47465;43.094;12.434;2023-04-29T09:46:53;4.77;;;2.50;;
61572;SDS011;47465;43.094;12.434;2023-04-29T09:49:23;3.50;;;2.00;;
61572;SDS011;47465;43.094;12.434;2023-04-29T09:51:51;5.28;;;2.03;;
61572;SDS011;47465;43.094;12.434;2023-04-29T09:54:20;8.00;;;2.45;;
61572;SDS011;47465;43.094;12.434;2023-04-29T09:59:13;5.18;;;2.20;;
61572;SDS011;47465;43.094;12.434;2023-04-29T10:01:39;4.22;;;2.05;;
61572;SDS011;47465;43.094;12.434;2023-04-29T10:04:05;5.95;;;2.17;;
61572;SDS011;47465;43.094;12.434;2023-04-29T10:06:35;6.68;;;2.50;;
61572;SDS011;47465;43.094;12.434;2023-04-29T10:09:02;5.07;;;2.25;;
61572;SDS011;47465;43.094;12.434;2023-04-29T10:11:31;4.53;;;2.55;;
61572;SDS011;47465;43.094;12.434;2023-04-29T10:13:58;7.57;;;2.83;;
61572;SDS011;47465;43.094;12.434;2023-04-29T10:16:27;11.75;;;3.22;;
61572;SDS011;47465;43.094;12.434;2023-04-29T10:18:55;7.20;;;3.20;;
61572;SDS011;47465;43.094;12.434;2023-04-29T10:21:26;4.85;;;2.20;;
61572;SDS011;47465;43.094;12.434;2023-04-29T10:23:55;5.65;;;2.60;;
61572;SDS011;47465;43.094;12.434;2023-04-29T10:26:24;5.33;;;2.50;;
61572;SDS011;47465;43.094;12.434;2023-04-29T10:28:54;3.83;;;2.30;;
61572;SDS011;47465;43.094;12.434;2023-04-29T10:31:21;4.68;;;2.60;;
61572;SDS011;47465;43.094;12.434;2023-04-29T10:33:50;3.95;;;2.53;;
61572;SDS011;47465;43.094;12.434;2023-04-29T10:36:19;7.60;;;2.80;;
61572;SDS011;47465;43.094;12.434;2023-04-29T10:38:47;8.10;;;2.70;;
61572;SDS011;47465;43.094;12.434;2023-04-29T10:41:18;4.93;;;2.50;;
61572;SDS011;47465;43.094;12.434;2023-04-29T10:43:49;9.90;;;2.70;;
61572;SDS011;47465;43.094;12.434;2023-04-29T10:46:20;6.13;;;2.78;;
61572;SDS011;47465;43.094;12.434;2023-04-29T10:48:48;9.45;;;2.88;;
61572;SDS011;47465;43.094;12.434;2023-04-29T10:54:01;8.68;;;2.58;;
61572;SDS011;47465;43.094;12.434;2023-04-29T10:56:37;5.78;;;3.28;;
61572;SDS011;47465;43.094;12.434;2023-04-29T10:59:11;6.22;;;2.60;;
61572;SDS011;47465;43.094;12.434;2023-04-29T11:01:43;5.00;;;2.40;;
61572;SDS011;47465;43.094;12.434;2023-04-29T11:04:10;4.97;;;2.35;;
61572;SDS011;47465;43.094;12.434;2023-04-29T11:06:38;5.18;;;2.55;;
61572;SDS011;47465;43.094;12.434;2023-04-29T11:09:07;5.68;;;2.53;;
61572;SDS011;47465;43.094;12.434;2023-04-29T11:11:40;8.15;;;2.58;;
61572;SDS011;47465;43.094;12.434;2023-04-29T11:14:11;5.40;;;2.47;;
61572;SDS011;47465;43.094;12.434;2023-04-29T11:16:46;5.25;;;3.00;;
61572;SDS011;47465;43.094;12.434;2023-04-29T11:19:15;5.93;;;2.78;;
61572;SDS011;47465;43.094;12.434;2023-04-29T11:21:43;6.60;;;3.10;;
61572;SDS011;47465;43.094;12.434;2023-04-29T11:24:10;9.23;;;3.27;;
61572;SDS011;47465;43.094;12.434;2023-04-29T11:26:37;5.22;;;3.20;;
61572;SDS011;47465;43.094;12.434;2023-04-29T11:29:03;7.03;;;3.33;;
61572;SDS011;47465;43.094;12.434;2023-04-29T11:31:29;7.05;;;3.00;;
61572;SDS011;47465;43.094;12.434;2023-04-29T11:33:57;6.90;;;2.80;;
61572;SDS011;47465;43.094;12.434;2023-04-29T11:36:23;7.40;;;3.00;;
61572;SDS011;47465;43.094;12.434;2023-04-29T11:38:50;6.07;;;3.00;;
61572;SDS011;47465;43.094;12.434;2023-04-29T11:41:16;6.78;;;3.40;;
61572;SDS011;47465;43.094;12.434;2023-04-29T11:43:44;6.28;;;3.35;;
61572;SDS011;47465;43.094;12.434;2023-04-29T11:46:11;6.45;;;3.47;;
61572;SDS011;47465;43.094;12.434;2023-04-29T11:48:44;5.65;;;3.33;;
61572;SDS011;47465;43.094;12.434;2023-04-29T11:51:13;7.07;;;3.00;;
61572;SDS011;47465;43.094;12.434;2023-04-29T11:53:40;5.90;;;3.47;;
61572;SDS011;47465;43.094;12.434;2023-04-29T11:56:07;7.80;;;3.25;;
61572;SDS011;47465;43.094;12.434;2023-04-29T11:58:33;7.50;;;3.47;;
61572;SDS011;47465;43.094;12.434;2023-04-29T12:00:59;8.40;;;3.53;;
61572;SDS011;47465;43.094;12.434;2023-04-29T12:03:28;6.45;;;3.00;;
61572;SDS011;47465;43.094;12.434;2023-04-29T12:05:56;6.82;;;3.20;;
61572;SDS011;47465;43.094;12.434;2023-04-29T12:08:23;10.02;;;3.30;;
61572;SDS011;47465;43.094;12.434;2023-04-29T12:10:51;25.92;;;4.55;;
61572;SDS011;47465;43.094;12.434;2023-04-29T12:13:18;6.00;;;3.20;;
61572;SDS011;47465;43.094;12.434;2023-04-29T12:15:45;5.82;;;3.58;;
61572;SDS011;47465;43.094;12.434;2023-04-29T12:18:12;8.32;;;3.55;;
61572;SDS011;47465;43.094;12.434;2023-04-29T12:20:38;7.05;;;2.92;;
61572;SDS011;47465;43.094;12.434;2023-04-29T12:23:10;6.30;;;3.20;;
61572;SDS011;47465;43.094;12.434;2023-04-29T12:25:38;6.60;;;3.35;;
61572;SDS011;47465;43.094;12.434;2023-04-29T12:28:05;7.40;;;3.67;;
61572;SDS011;47465;43.094;12.434;2023-04-29T12:30:36;9.95;;;3.70;;
61572;SDS011;47465;43.094;12.434;2023-04-29T12:33:02;6.97;;;3.10;;
61572;SDS011;47465;43.094;12.434;2023-04-29T12:35:28;5.55;;;2.97;;
61572;SDS011;47465;43.094;12.434;2023-04-29T12:37:54;5.40;;;3.00;;
61572;SDS011;47465;43.094;12.434;2023-04-29T12:40:23;8.82;;;3.25;;
61572;SDS011;47465;43.094;12.434;2023-04-29T12:42:51;6.82;;;3.03;;
61572;SDS011;47465;43.094;12.434;2023-04-29T12:45:24;6.87;;;3.20;;
61572;SDS011;47465;43.094;12.434;2023-04-29T12:47:51;8.07;;;3.08;;
61572;SDS011;47465;43.094;12.434;2023-04-29T12:50:18;6.07;;;3.22;;
61572;SDS011;47465;43.094;12.434;2023-04-29T12:52:49;7.55;;;3.90;;
61572;SDS011;47465;43.094;12.434;2023-04-29T12:55:16;9.75;;;7.78;;
61572;SDS011;47465;43.094;12.434;2023-04-29T12:57:42;7.55;;;3.72;;
61572;SDS011;47465;43.094;12.434;2023-04-29T13:00:10;5.90;;;3.03;;
61572;SDS011;47465;43.094;12.434;2023-04-29T13:05:02;7.32;;;3.35;;
61572;SDS011;47465;43.094;12.434;2023-04-29T13:07:28;7.78;;;3.70;;
61572;SDS011;47465;43.094;12.434;2023-04-29T13:09:57;8.13;;;3.80;;
61572;SDS011;47465;43.094;12.434;2023-04-29T13:12:26;6.80;;;3.15;;
61572;SDS011;47465;43.094;12.434;2023-04-29T13:14:52;5.53;;;3.20;;
61572;SDS011;47465;43.094;12.434;2023-04-29T13:17:20;6.80;;;3.42;;
61572;SDS011;47465;43.094;12.434;2023-04-29T13:19:46;8.02;;;3.35;;
61572;SDS011;47465;43.094;12.434;2023-04-29T13:22:12;8.02;;;3.42;;
61572;SDS011;47465;43.094;12.434;2023-04-29T13:24:38;8.82;;;3.58;;
61572;SDS011;47465;43.094;12.434;2023-04-29T13:27:04;6.90;;;3.30;;
61572;SDS011;47465;43.094;12.434;2023-04-29T13:29:30;6.15;;;3.50;;
61572;SDS011;47465;43.094;12.434;2023-04-29T13:31:56;6.38;;;3.83;;
61572;SDS011;47465;43.094;12.434;2023-04-29T13:34:23;8.55;;;3.28;;
61572;SDS011;47465;43.094;12.434;2023-04-29T13:36:50;6.75;;;2.95;;
61572;SDS011;47465;43.094;12.434;2023-04-29T13:39:15;5.65;;;2.60;;
61572;SDS011;47465;43.094;12.434;2023-04-29T13:41:41;4.68;;;3.08;;
61572;SDS011;47465;43.094;12.434;2023-04-29T13:44:07;7.18;;;3.47;;
61572;SDS011;47465;43.094;12.434;2023-04-29T13:46:33;6.63;;;3.10;;
61572;SDS011;47465;43.094;12.434;2023-04-29T13:48:59;6.22;;;3.15;;
61572;SDS011;47465;43.094;12.434;2023-04-29T13:51:27;5.88;;;3.00;;
61572;SDS011;47465;43.094;12.434;2023-04-29T13:53:53;4.75;;;3.05;;
61572;SDS011;47465;43.094;12.434;2023-04-29T13:56:19;20.38;;;4.25;;
61572;SDS011;47465;43.094;12.434;2023-04-29T13:58:45;5.43;;;3.25;;
61572;SDS011;47465;43.094;12.434;2023-04-29T14:01:11;6.63;;;3.63;;
61572;SDS011;47465;43.094;12.434;2023-04-29T14:03:37;6.65;;;4.15;;
61572;SDS011;47465;43.094;12.434;2023-04-29T14:06:03;8.07;;;3.70;;
61572;SDS011;47465;43.094;12.434;2023-04-29T14:08:32;7.90;;;3.92;;
61572;SDS011;47465;43.094;12.434;2023-04-29T14:10:58;8.25;;;3.80;;
61572;SDS011;47465;43.094;12.434;2023-04-29T14:13:24;8.02;;;4.30;;
61572;SDS011;47465;43.094;12.434;2023-04-29T14:15:56;6.35;;;3.95;;
61572;SDS011;47465;43.094;12.434;2023-04-29T14:18:23;9.00;;;4.00;;
61572;SDS011;47465;43.094;12.434;2023-04-29T14:20:51;6.50;;;4.15;;
61572;SDS011;47465;43.094;12.434;2023-04-29T14:23:18;8.25;;;4.90;;
61572;SDS011;47465;43.094;12.434;2023-04-29T14:25:47;9.25;;;5.28;;
61572;SDS011;47465;43.094;12.434;2023-04-29T14:28:13;11.95;;;5.78;;
61572;SDS011;47465;43.094;12.434;2023-04-29T14:30:39;7.13;;;3.90;;
61572;SDS011;47465;43.094;12.434;2023-04-29T14:33:05;6.93;;;3.75;;
61572;SDS011;47465;43.094;12.434;2023-04-29T14:35:32;15.38;;;4.53;;
61572;SDS011;47465;43.094;12.434;2023-04-29T14:37:58;9.35;;;4.07;;
61572;SDS011;47465;43.094;12.434;2023-04-29T14:40:24;6.78;;;3.55;;
61572;SDS011;47465;43.094;12.434;2023-04-29T14:42:52;6.93;;;3.50;;
61572;SDS011;47465;43.094;12.434;2023-04-29T14:45:17;6.53;;;3.80;;